createdAt,value
2019-05-25T00:01:49.640Z,16.12
2019-05-25T00:04:18.499Z,16.35
2019-05-25T00:06:47.377Z,15.95
2019-05-25T00:09:16.200Z,16.32
2019-05-25T00:11:45.099Z,14.65
2019-05-25T00:14:13.940Z,15.72
2019-05-25T00:16:42.791Z,15.63
2019-05-25T00:19:11.674Z,15.98
2019-05-25T00:21:40.515Z,16.90
2019-05-25T00:24:12.625Z,15.95
2019-05-25T00:26:39.865Z,15.65
2019-05-25T00:29:08.726Z,16.85
2019-05-25T00:31:37.632Z,16.42
2019-05-25T00:34:06.479Z,15.53
2019-05-25T00:36:35.316Z,16.45
2019-05-25T00:39:05.773Z,16.32
2019-05-25T00:41:34.627Z,15.70
2019-05-25T00:44:03.509Z,16.95
2019-05-25T00:46:32.337Z,15.85
2019-05-25T00:49:02.376Z,17.17
2019-05-25T00:51:31.266Z,16.15
2019-05-25T00:54:00.109Z,17.62
2019-05-25T00:56:29.001Z,17.80
2019-05-25T00:58:57.833Z,17.35
2019-05-25T01:01:26.686Z,17.20
2019-05-25T01:03:55.572Z,17.65
2019-05-25T01:06:24.422Z,18.00
2019-05-25T01:08:53.306Z,17.27
2019-05-25T01:11:22.152Z,18.40
2019-05-25T01:13:50.981Z,18.10
2019-05-25T01:16:19.859Z,18.15
2019-05-25T01:18:48.712Z,17.85
2019-05-25T01:21:17.601Z,17.45
2019-05-25T01:23:46.450Z,17.70
2019-05-25T01:26:15.302Z,17.27
2019-05-25T01:28:45.101Z,17.70
2019-05-25T01:31:13.989Z,17.90
2019-05-25T01:33:42.891Z,17.67
2019-05-25T01:36:11.741Z,18.17
2019-05-25T01:38:40.605Z,17.92
2019-05-25T01:41:09.480Z,18.40
2019-05-25T01:43:38.301Z,18.02
2019-05-25T01:46:07.170Z,17.37
2019-05-25T01:48:36.019Z,17.15
2019-05-25T01:51:04.917Z,16.52
2019-05-25T01:53:33.785Z,18.25
2019-05-25T01:56:02.599Z,17.30
2019-05-25T01:58:31.463Z,18.67
2019-05-25T02:01:00.293Z,18.23
2019-05-25T02:03:29.183Z,18.42
2019-05-25T02:05:58.017Z,17.92
2019-05-25T02:08:26.893Z,17.77
2019-05-25T02:10:55.772Z,17.98
2019-05-25T02:13:24.625Z,16.73
2019-05-25T02:15:53.526Z,17.45
2019-05-25T02:18:22.397Z,18.57
2019-05-25T02:20:51.251Z,18.23
2019-05-25T02:23:20.462Z,17.60
2019-05-25T02:25:49.248Z,18.12
2019-05-25T02:28:18.127Z,17.60
2019-05-25T02:30:47.025Z,18.05
2019-05-25T02:33:15.882Z,18.90
2019-05-25T02:35:44.743Z,18.10
2019-05-25T02:38:13.581Z,18.80
2019-05-25T02:40:42.489Z,18.85
2019-05-25T02:43:11.382Z,18.20
2019-05-25T02:45:40.188Z,18.95
2019-05-25T02:48:09.076Z,17.23
2019-05-25T02:50:37.920Z,18.30
2019-05-25T02:53:06.818Z,18.60
2019-05-25T02:55:35.706Z,18.02
2019-05-25T02:58:04.557Z,19.10
2019-05-25T03:00:35.081Z,19.00
2019-05-25T03:03:05.278Z,19.92
2019-05-25T03:05:34.264Z,19.82
2019-05-25T03:08:03.106Z,19.48
2019-05-25T03:10:32.662Z,18.45
2019-05-25T03:13:03.583Z,20.05
2019-05-25T03:15:32.526Z,20.05
2019-05-25T03:18:01.515Z,20.50
2019-05-25T03:20:30.339Z,20.55
2019-05-25T03:22:59.318Z,21.15
2019-05-25T03:25:28.237Z,20.70
2019-05-25T03:27:57.105Z,21.25
2019-05-25T03:30:37.127Z,21.02
2019-05-25T03:33:05.959Z,20.45
2019-05-25T03:35:34.846Z,20.60
2019-05-25T03:38:03.750Z,20.70
2019-05-25T03:40:32.568Z,21.87
2019-05-25T03:43:01.447Z,21.97
2019-05-25T03:45:30.306Z,21.40
2019-05-25T03:47:59.271Z,21.10
2019-05-25T03:50:28.151Z,21.23
2019-05-25T03:52:56.992Z,20.27
2019-05-25T03:55:25.859Z,20.08
2019-05-25T03:57:54.713Z,21.27
2019-05-25T04:00:35.331Z,21.35
2019-05-25T04:03:04.973Z,20.15
2019-05-25T04:05:34.025Z,20.08
2019-05-25T04:08:03.011Z,20.27
2019-05-25T04:10:31.843Z,20.45
2019-05-25T04:13:00.735Z,20.48
2019-05-25T04:15:29.573Z,20.70
2019-05-25T04:17:58.766Z,23.95
2019-05-25T04:20:27.771Z,22.45
2019-05-25T04:22:56.618Z,22.42
2019-05-25T04:25:25.527Z,22.67
2019-05-25T04:27:54.366Z,23.92
2019-05-25T04:30:23.304Z,25.80
2019-05-25T04:32:52.185Z,24.12
2019-05-25T04:35:21.019Z,25.97
2019-05-25T04:37:49.926Z,24.47
2019-05-25T04:40:18.764Z,25.37
2019-05-25T04:42:47.593Z,25.77
2019-05-25T04:45:16.592Z,25.60
2019-05-25T04:47:45.413Z,26.33
2019-05-25T04:50:15.597Z,26.00
2019-05-25T04:52:44.444Z,26.62
2019-05-25T04:55:13.366Z,27.40
2019-05-25T04:57:43.566Z,27.40
2019-05-25T05:00:12.712Z,27.20
2019-05-25T05:02:41.622Z,27.95
2019-05-25T05:05:10.553Z,26.30
2019-05-25T05:07:39.390Z,25.97
2019-05-25T05:10:08.893Z,26.02
2019-05-25T05:12:37.721Z,24.10
2019-05-25T05:15:07.431Z,24.85
2019-05-25T05:17:36.254Z,25.05
2019-05-25T05:20:09.565Z,25.37
2019-05-25T05:22:38.407Z,26.73
2019-05-25T05:25:09.092Z,27.65
2019-05-25T05:27:38.858Z,27.67
2019-05-25T05:30:09.225Z,29.90
2019-05-25T05:32:57.343Z,30.52
2019-05-25T05:35:26.173Z,28.57
2019-05-25T05:37:55.970Z,28.67
2019-05-25T05:40:25.218Z,26.37
2019-05-25T05:42:56.703Z,27.07
2019-05-25T05:45:27.558Z,26.12
2019-05-25T05:47:57.862Z,26.52
2019-05-25T05:50:26.735Z,26.68
2019-05-25T05:52:57.164Z,25.92
2019-05-25T05:55:32.859Z,27.17
2019-05-25T05:58:02.481Z,26.90
2019-05-25T06:00:31.461Z,26.77
2019-05-25T06:03:00.293Z,26.77
2019-05-25T06:05:29.188Z,25.80
2019-05-25T06:07:58.036Z,25.52
2019-05-25T06:10:26.882Z,25.50
2019-05-25T06:12:55.765Z,24.95
2019-05-25T06:15:24.603Z,25.43
2019-05-25T06:17:53.496Z,25.95
2019-05-25T06:20:22.351Z,24.77
2019-05-25T06:22:51.210Z,25.43
2019-05-25T06:25:22.268Z,26.33
2019-05-25T06:27:51.090Z,27.40
2019-05-25T06:30:20.489Z,25.90
2019-05-25T06:32:49.343Z,26.37
2019-05-25T06:35:18.299Z,26.00
2019-05-25T06:37:47.154Z,26.40
2019-05-25T06:40:17.123Z,27.65
2019-05-25T06:42:46.013Z,26.60
2019-05-25T06:45:16.314Z,25.10
2019-05-25T06:47:45.159Z,26.50
2019-05-25T06:50:14.526Z,23.40
2019-05-25T06:52:43.555Z,16.25
2019-05-25T06:55:12.497Z,16.35
2019-05-25T06:57:43.557Z,15.50
2019-05-25T07:00:12.693Z,11.53
2019-05-25T07:02:41.541Z,12.18
2019-05-25T07:05:10.769Z,11.30
2019-05-25T07:07:39.690Z,11.43
2019-05-25T07:10:10.737Z,11.00
2019-05-25T07:12:39.654Z,11.05
2019-05-25T07:15:09.489Z,10.60
2019-05-25T07:17:38.326Z,9.35
2019-05-25T07:20:08.316Z,10.15
2019-05-25T07:22:37.138Z,8.28
2019-05-25T07:25:07.831Z,7.70
2019-05-25T07:27:36.741Z,7.62
2019-05-25T07:30:07.636Z,7.50
2019-05-25T07:32:36.486Z,6.20
2019-05-25T07:35:08.641Z,6.33
2019-05-25T07:40:07.206Z,5.42
2019-05-25T07:42:36.036Z,5.70
2019-05-25T07:45:06.775Z,4.00
2019-05-25T07:47:36.141Z,3.25
2019-05-25T07:50:09.752Z,3.58
2019-05-25T07:52:38.653Z,3.50
2019-05-25T07:55:07.669Z,2.90
2019-05-25T07:57:36.538Z,2.42
2019-05-25T08:00:08.973Z,2.20
2019-05-25T08:02:38.008Z,2.20
2019-05-25T08:05:07.447Z,1.98
2019-05-25T08:07:36.295Z,1.70
2019-05-25T08:10:06.545Z,2.17
2019-05-25T08:12:35.383Z,1.90
2019-05-25T08:15:06.125Z,1.45
2019-05-25T08:17:34.961Z,1.60
2019-05-25T08:20:05.273Z,1.50
2019-05-25T08:22:34.162Z,1.30
2019-05-25T08:25:03.127Z,1.32
2019-05-25T08:27:32.003Z,1.20
2019-05-25T08:30:00.829Z,1.35
2019-05-25T08:32:29.705Z,1.40
2019-05-25T08:34:58.595Z,1.20
2019-05-25T08:37:27.433Z,1.20
2019-05-25T08:39:56.311Z,1.37
2019-05-25T08:42:25.149Z,1.00
2019-05-25T08:44:53.974Z,1.00
2019-05-25T08:47:22.836Z,1.07
2019-05-25T08:49:51.700Z,1.20
2019-05-25T08:52:20.689Z,1.00
2019-05-25T08:54:49.505Z,1.45
2019-05-25T08:57:18.758Z,1.30
2019-05-25T08:59:47.818Z,1.37
2019-05-25T09:02:16.654Z,1.20
2019-05-25T09:04:45.525Z,1.50
2019-05-25T09:07:14.725Z,2.40
2019-05-25T09:09:43.627Z,1.50
2019-05-25T09:12:12.410Z,1.60
2019-05-25T09:14:41.243Z,1.50
2019-05-25T09:17:10.095Z,1.75
2019-05-25T09:19:38.914Z,1.77
2019-05-25T09:22:07.900Z,1.80
2019-05-25T09:24:36.785Z,2.70
2019-05-25T09:27:05.619Z,2.20
2019-05-25T09:29:34.498Z,1.95
2019-05-25T09:32:06.784Z,1.90
2019-05-25T09:34:33.855Z,2.00
2019-05-25T09:37:02.719Z,1.98
2019-05-25T09:39:33.566Z,1.80
2019-05-25T09:42:02.065Z,1.75
2019-05-25T09:44:30.920Z,1.70
2019-05-25T09:46:59.834Z,1.80
2019-05-25T09:49:28.700Z,1.90
2019-05-25T09:51:57.532Z,1.50
2019-05-25T09:54:26.514Z,1.47
2019-05-25T09:56:55.371Z,1.45
2019-05-25T09:59:24.267Z,1.80
2019-05-25T10:01:53.162Z,1.42
2019-05-25T10:04:21.972Z,1.75
2019-05-25T10:06:50.850Z,1.82
2019-05-25T10:09:19.679Z,1.80
2019-05-25T10:11:48.543Z,1.72
2019-05-25T10:14:17.397Z,1.70
2019-05-25T10:16:46.263Z,1.60
2019-05-25T10:19:15.115Z,1.80
2019-05-25T10:21:43.996Z,1.62
2019-05-25T10:24:12.875Z,1.70
2019-05-25T10:26:41.757Z,1.70
2019-05-25T10:29:10.567Z,1.70
2019-05-25T10:31:39.425Z,1.60
2019-05-25T10:34:08.246Z,2.02
2019-05-25T10:36:37.141Z,2.17
2019-05-25T10:39:08.297Z,2.00
2019-05-25T10:41:37.138Z,2.27
2019-05-25T10:44:06.015Z,1.90
2019-05-25T10:46:34.850Z,2.52
2019-05-25T10:49:03.732Z,2.10
2019-05-25T10:51:32.593Z,2.40
2019-05-25T10:54:01.428Z,2.75
2019-05-25T10:56:30.272Z,2.87
2019-05-25T10:58:59.099Z,3.12
2019-05-25T11:01:27.973Z,3.20
2019-05-25T11:03:56.869Z,2.75
2019-05-25T11:06:25.687Z,2.75
2019-05-25T11:08:54.551Z,2.47
2019-05-25T11:11:23.370Z,2.35
2019-05-25T11:13:52.240Z,2.62
2019-05-25T11:16:21.119Z,2.67
2019-05-25T11:18:49.951Z,2.75
2019-05-25T11:21:18.832Z,3.08
2019-05-25T11:23:47.755Z,3.50
2019-05-25T11:26:16.636Z,4.08
2019-05-25T11:28:45.486Z,3.00
2019-05-25T11:31:14.335Z,3.00
2019-05-25T11:33:43.373Z,3.20
2019-05-25T11:36:12.245Z,3.20
2019-05-25T11:38:41.119Z,2.90
2019-05-25T11:41:09.978Z,3.05
2019-05-25T11:43:40.384Z,3.77
2019-05-25T11:46:09.258Z,3.50
2019-05-25T11:48:38.087Z,4.15
2019-05-25T11:51:06.961Z,5.05
2019-05-25T11:53:35.819Z,5.28
2019-05-25T11:56:04.663Z,4.80
2019-05-25T11:58:46.602Z,4.87
2019-05-25T12:01:04.932Z,5.35
2019-05-25T12:03:33.825Z,5.17
2019-05-25T12:06:02.659Z,5.87
2019-05-25T12:08:31.485Z,5.87
2019-05-25T12:11:00.738Z,5.55
2019-05-25T12:13:32.041Z,6.40
2019-05-25T12:16:00.104Z,7.75
2019-05-25T12:18:28.957Z,7.22
2019-05-25T12:20:59.170Z,8.30
2019-05-25T12:23:27.995Z,8.30
2019-05-25T12:25:56.857Z,9.08
2019-05-25T12:28:25.748Z,8.03
2019-05-25T12:30:54.584Z,9.00
2019-05-25T12:33:23.468Z,8.18
2019-05-25T12:35:52.318Z,7.15
2019-05-25T12:38:21.129Z,6.65
2019-05-25T12:40:53.664Z,6.92
2019-05-25T12:43:20.483Z,7.05
2019-05-25T12:45:50.057Z,7.03
2019-05-25T12:48:18.881Z,6.45
2019-05-25T12:50:47.721Z,6.95
2019-05-25T12:53:16.601Z,6.92
2019-05-25T12:55:45.432Z,7.00
2019-05-25T12:58:14.312Z,7.45
2019-05-25T13:00:55.207Z,6.70
2019-05-25T13:03:15.629Z,7.10
2019-05-25T13:05:44.530Z,7.50
2019-05-25T13:08:13.375Z,7.15
2019-05-25T13:10:42.243Z,7.53
2019-05-25T13:13:11.079Z,7.30
2019-05-25T13:15:39.964Z,8.23
2019-05-25T13:18:08.819Z,8.28
2019-05-25T13:20:37.669Z,8.53
2019-05-25T13:23:06.556Z,8.10
2019-05-25T13:25:35.383Z,7.80
2019-05-25T13:28:04.282Z,7.60
2019-05-25T13:30:33.178Z,7.40
2019-05-25T13:33:02.025Z,7.20
2019-05-25T13:35:31.204Z,7.92
2019-05-25T13:38:01.137Z,8.18
2019-05-25T13:40:30.035Z,8.23
2019-05-25T13:42:58.895Z,8.40
2019-05-25T13:45:27.751Z,9.08
2019-05-25T13:47:56.625Z,8.50
2019-05-25T13:50:25.467Z,9.08
2019-05-25T13:52:54.354Z,8.75
2019-05-25T13:55:23.248Z,9.30
2019-05-25T13:57:52.119Z,9.38
2019-05-25T14:00:21.081Z,9.80
2019-05-25T14:02:49.912Z,10.72
2019-05-25T14:05:18.912Z,10.28
2019-05-25T14:07:47.765Z,10.28
2019-05-25T14:10:16.588Z,10.20
2019-05-25T14:12:45.546Z,9.25
2019-05-25T14:15:14.571Z,9.73
2019-05-25T14:17:43.457Z,10.68
2019-05-25T14:20:12.501Z,10.50
2019-05-25T14:22:41.373Z,9.53
2019-05-25T14:25:11.304Z,7.87
2019-05-25T14:27:40.149Z,6.95
2019-05-25T14:30:09.822Z,6.95
2019-05-25T14:32:38.656Z,6.10
2019-05-25T14:35:07.800Z,6.65
2019-05-25T14:37:36.673Z,7.08
2019-05-25T14:40:11.432Z,7.58
2019-05-25T14:42:39.931Z,7.80
2019-05-25T14:45:09.859Z,8.33
2019-05-25T14:47:38.709Z,9.15
2019-05-25T14:50:08.975Z,9.05
2019-05-25T14:52:37.816Z,9.35
2019-05-25T14:55:08.987Z,8.85
2019-05-25T14:57:37.819Z,8.75
2019-05-25T15:00:09.038Z,8.88
2019-05-25T15:02:37.906Z,9.37
2019-05-25T15:05:07.283Z,8.93
2019-05-25T15:07:36.226Z,8.98
2019-05-25T15:10:09.665Z,9.35
2019-05-25T15:12:38.615Z,9.63
2019-05-25T15:15:08.841Z,9.70
2019-05-25T15:17:37.725Z,9.70
2019-05-25T15:20:09.473Z,9.23
2019-05-25T15:22:38.316Z,8.73
2019-05-25T15:25:08.486Z,9.23
2019-05-25T15:27:37.487Z,9.68
2019-05-25T15:30:07.318Z,10.58
2019-05-25T15:32:36.212Z,10.25
2019-05-25T15:35:06.908Z,10.43
2019-05-25T15:37:35.824Z,11.18
2019-05-25T15:40:07.717Z,10.60
2019-05-25T15:42:36.592Z,11.20
2019-05-25T15:45:07.164Z,10.80
2019-05-25T15:47:35.965Z,10.53
2019-05-25T15:50:07.971Z,10.45
2019-05-25T15:52:36.813Z,10.10
2019-05-25T15:55:09.576Z,10.32
2019-05-25T15:57:38.527Z,10.48
2019-05-25T16:00:13.369Z,10.40
2019-05-25T16:02:42.286Z,10.53
2019-05-25T16:05:11.431Z,10.10
2019-05-25T16:07:43.180Z,9.98
2019-05-25T16:10:12.263Z,10.40
2019-05-25T16:12:41.103Z,9.60
2019-05-25T16:15:10.195Z,10.03
2019-05-25T16:17:39.677Z,9.80
2019-05-25T16:20:08.630Z,9.75
2019-05-25T16:22:37.495Z,8.95
2019-05-25T16:25:07.786Z,8.05
2019-05-25T16:27:36.667Z,8.48
2019-05-25T16:30:06.714Z,8.03
2019-05-25T16:33:07.246Z,7.37
2019-05-25T16:35:06.916Z,7.10
2019-05-25T16:37:37.481Z,6.92
2019-05-25T16:40:07.609Z,6.55
2019-05-25T16:42:37.155Z,7.25
2019-05-25T16:45:07.642Z,7.10
2019-05-25T16:47:36.591Z,6.90
2019-05-25T16:50:07.478Z,7.12
2019-05-25T16:52:36.324Z,6.40
2019-05-25T16:55:09.676Z,6.00
2019-05-25T16:57:38.568Z,5.97
2019-05-25T17:00:08.593Z,6.20
2019-05-25T17:02:38.589Z,5.92
2019-05-25T17:05:07.831Z,5.08
2019-05-25T17:07:36.667Z,4.80
2019-05-25T17:10:06.635Z,6.50
2019-05-25T17:12:35.458Z,5.75
2019-05-25T17:15:06.546Z,5.90
2019-05-25T17:17:35.377Z,5.97
2019-05-25T17:20:05.760Z,6.00
2019-05-25T17:22:34.604Z,6.42
2019-05-25T17:25:04.078Z,10.35
2019-05-25T17:27:32.957Z,10.35
2019-05-25T17:30:01.822Z,12.18
2019-05-25T17:32:30.808Z,12.95
2019-05-25T17:34:59.668Z,12.75
2019-05-25T17:37:28.547Z,12.93
2019-05-25T17:39:57.421Z,13.55
2019-05-25T17:42:26.259Z,13.70
2019-05-25T17:44:55.131Z,13.40
2019-05-25T17:47:23.982Z,13.43
2019-05-25T17:49:53.090Z,13.20
2019-05-25T17:52:22.837Z,13.25
2019-05-25T17:54:52.047Z,12.43
2019-05-25T17:57:20.990Z,11.83
2019-05-25T17:59:49.838Z,11.70
2019-05-25T18:02:18.682Z,11.18
2019-05-25T18:04:47.553Z,11.10
2019-05-25T18:07:16.409Z,11.28
2019-05-25T18:09:45.339Z,10.50
2019-05-25T18:12:14.181Z,10.30
2019-05-25T18:14:43.038Z,9.60
2019-05-25T18:17:11.930Z,10.18
2019-05-25T18:19:40.755Z,9.50
2019-05-25T18:22:10.545Z,10.75
2019-05-25T18:24:39.407Z,11.38
2019-05-25T18:27:08.251Z,17.70
2019-05-25T18:29:37.145Z,13.28
2019-05-25T18:32:05.989Z,10.55
2019-05-25T18:34:34.887Z,10.88
2019-05-25T18:37:03.756Z,10.30
2019-05-25T18:39:32.574Z,10.32
2019-05-25T18:42:01.447Z,10.18
2019-05-25T18:44:30.278Z,10.45
2019-05-25T18:46:59.188Z,10.08
2019-05-25T18:49:29.486Z,10.93
2019-05-25T18:51:58.316Z,9.70
2019-05-25T18:54:27.218Z,9.08
2019-05-25T18:56:56.033Z,8.20
2019-05-25T18:59:24.991Z,7.50
2019-05-25T19:01:53.874Z,7.53
2019-05-25T19:04:42.281Z,6.53
2019-05-25T19:06:53.242Z,6.50
2019-05-25T19:09:22.086Z,6.33
2019-05-25T19:11:50.985Z,6.62
2019-05-25T19:14:19.801Z,6.15
2019-05-25T19:16:48.669Z,5.85
2019-05-25T19:19:17.509Z,5.33
2019-05-25T19:21:46.353Z,5.90
2019-05-25T19:24:15.236Z,5.72
2019-05-25T19:26:44.066Z,6.67
2019-05-25T19:29:12.913Z,6.95
2019-05-25T19:31:41.773Z,7.42
2019-05-25T19:34:10.629Z,8.78
2019-05-25T19:36:39.691Z,8.10
2019-05-25T19:39:09.127Z,9.63
2019-05-25T19:41:37.948Z,9.65
2019-05-25T19:44:06.830Z,9.55
2019-05-25T19:46:35.657Z,10.80
2019-05-25T19:49:04.651Z,10.90
2019-05-25T19:51:33.505Z,11.90
2019-05-25T19:54:02.448Z,10.93
2019-05-25T19:56:32.178Z,9.80
2019-05-25T19:59:01.002Z,9.20
2019-05-25T20:01:29.858Z,10.50
2019-05-25T20:03:58.749Z,8.83
2019-05-25T20:06:27.584Z,8.13
2019-05-25T20:08:56.464Z,7.28
2019-05-25T20:11:25.305Z,6.67
2019-05-25T20:13:54.149Z,5.40
2019-05-25T20:16:25.126Z,5.35
2019-05-25T20:18:53.489Z,5.50
2019-05-25T20:21:22.393Z,4.95
2019-05-25T20:23:51.227Z,5.67
2019-05-25T20:26:20.078Z,5.37
2019-05-25T20:28:50.821Z,5.15
2019-05-25T20:31:19.450Z,5.12
2019-05-25T20:33:48.323Z,4.67
2019-05-25T20:36:17.178Z,5.33
2019-05-25T20:38:46.003Z,5.55
2019-05-25T20:41:14.852Z,5.25
2019-05-25T20:43:43.691Z,4.83
2019-05-25T20:46:12.575Z,4.70
2019-05-25T20:48:41.399Z,4.90
2019-05-25T20:51:10.224Z,5.00
2019-05-25T20:53:39.113Z,3.92
2019-05-25T20:56:07.943Z,4.45
2019-05-25T20:58:39.071Z,4.70
2019-05-25T21:01:07.321Z,4.15
2019-05-25T21:03:36.151Z,4.08
2019-05-25T21:06:05.123Z,4.30
2019-05-25T21:08:33.956Z,4.00
2019-05-25T21:11:02.886Z,4.58
2019-05-25T21:13:31.684Z,5.00
2019-05-25T21:16:00.517Z,5.42
2019-05-25T21:18:29.393Z,5.50
2019-05-25T21:20:58.219Z,5.37
2019-05-25T21:23:27.094Z,6.30
2019-05-25T21:25:55.918Z,6.53
2019-05-25T21:28:24.766Z,5.97
2019-05-25T21:30:53.636Z,6.20
2019-05-25T21:33:22.461Z,6.67
2019-05-25T21:36:07.038Z,6.10
2019-05-25T21:38:21.828Z,6.87
2019-05-25T21:40:50.778Z,6.35
2019-05-25T21:43:19.622Z,6.08
2019-05-25T21:45:49.930Z,6.42
2019-05-25T21:48:18.817Z,6.53
2019-05-25T21:50:47.675Z,6.47
2019-05-25T21:53:16.510Z,6.97
2019-05-25T21:55:45.353Z,7.10
2019-05-25T21:58:14.189Z,6.70
2019-05-25T22:00:43.671Z,7.03
2019-05-25T22:03:12.531Z,7.03
2019-05-25T22:05:41.363Z,7.72
2019-05-25T22:08:10.238Z,6.90
2019-05-25T22:10:39.076Z,6.65
2019-05-25T22:13:24.920Z,6.33
2019-05-25T22:15:38.455Z,6.62
2019-05-25T22:18:07.359Z,6.25
2019-05-25T22:20:36.241Z,6.00
2019-05-25T22:23:05.059Z,5.87
2019-05-25T22:25:33.973Z,5.80
2019-05-25T22:28:02.797Z,6.25
2019-05-25T22:30:31.613Z,5.35
2019-05-25T22:33:00.480Z,5.35
2019-05-25T22:35:29.317Z,6.22
2019-05-25T22:37:58.218Z,5.92
2019-05-25T22:40:27.043Z,6.20
2019-05-25T22:42:55.880Z,6.17
2019-05-25T22:45:24.751Z,6.47
2019-05-25T22:47:53.575Z,6.78
2019-05-25T22:50:22.539Z,6.10
2019-05-25T22:52:51.386Z,6.40
2019-05-25T22:55:20.263Z,6.33
2019-05-25T22:57:49.235Z,6.30
2019-05-25T23:00:19.577Z,6.20
2019-05-25T23:02:48.420Z,6.42
2019-05-25T23:05:17.391Z,6.78
2019-05-25T23:07:46.243Z,6.55
2019-05-25T23:10:15.236Z,7.28
2019-05-25T23:12:44.094Z,6.08
2019-05-25T23:15:13.038Z,6.42
2019-05-25T23:17:41.897Z,6.37
2019-05-25T23:20:10.842Z,6.80
2019-05-25T23:22:39.721Z,6.05
2019-05-25T23:25:08.560Z,7.50
2019-05-25T23:27:37.400Z,7.83
2019-05-25T23:30:07.492Z,8.28
2019-05-25T23:32:36.323Z,8.13
2019-05-25T23:35:05.922Z,8.90
2019-05-25T23:37:34.729Z,9.70
2019-05-25T23:40:05.552Z,10.38
2019-05-25T23:42:34.442Z,11.15
2019-05-25T23:45:03.292Z,11.12
2019-05-25T23:47:32.187Z,11.08
2019-05-25T23:50:01.046Z,11.22
2019-05-25T23:52:29.894Z,12.18
2019-05-25T23:54:58.763Z,11.30
2019-05-25T23:57:27.625Z,11.10
2019-05-25T23:59:56.528Z,11.68
